Time;durP1;ratioP1;P1;durP2;ratioP2;P2;SDS_P1;SDS_P2;PMS_P1;PMS_P2;Temp;Humidity;BMP_temperature;BMP_pressure;BME280_temperature;BME280_humidity;BME280_pressure;Samples;Min_cycle;Max_cycle;Signal;HPM_P1;HPM_P2
2022/04/23 00:00:21;;;;;;;20.82;15.25;;;;;;;7.47;77.83;99680.44;2720268;86;21174;-86
2022/04/23 00:04:24;;;;;;;13.15;11.75;;;;;;;7.42;77.72;99683.91;2711980;86;21252;-85
2022/04/23 00:08:25;;;;;;;15.78;12.15;;;;;;;7.38;77.91;99679.36;2737784;85;21135;-85
2022/04/23 00:12:26;;;;;;;16.02;12.98;;;;;;;7.38;77.92;99685.11;2731631;85;21096;-86
2022/04/23 00:16:28;;;;;;;18.90;14.13;;;;;;;7.36;77.92;99683.90;2727642;85;21114;-86
2022/04/23 00:20:30;;;;;;;18.27;14.10;;;;;;;7.34;77.88;99675.74;2688264;87;21052;-85
2022/04/23 00:24:31;;;;;;;15.20;13.40;;;;;;;7.30;77.72;99680.42;2700363;86;21028;-86
2022/04/23 00:28:32;;;;;;;15.85;12.90;;;;;;;7.23;77.69;99677.91;2702648;86;21579;-86
2022/04/23 00:32:33;;;;;;;14.47;10.88;;;;;;;7.15;77.97;99675.84;2694804;86;21734;-86
2022/04/23 00:36:35;;;;;;;16.42;13.88;;;;;;;7.12;78.27;99680.05;2674572;86;21047;-85
2022/04/23 00:40:39;;;;;;;16.45;12.60;;;;;;;7.09;78.44;99677.66;2720891;85;21051;-85
2022/04/23 00:44:40;;;;;;;15.05;10.80;;;;;;;7.05;78.61;99674.39;2727542;86;21655;-86
2022/04/23 00:48:41;;;;;;;15.58;12.40;;;;;;;7.05;78.64;99677.04;2729034;85;21602;-85
2022/04/23 00:52:42;;;;;;;13.20;10.00;;;;;;;7.03;78.39;99676.78;2658390;86;21103;-86
2022/04/23 00:56:43;;;;;;;17.32;11.57;;;;;;;7.01;78.19;99679.56;2733897;85;21605;-85
2022/04/23 01:00:45;;;;;;;15.18;12.53;;;;;;;6.98;78.04;99680.63;2730798;86;21063;-85
2022/04/23 01:04:46;;;;;;;12.40;11.08;;;;;;;6.95;78.05;99674.26;2697372;85;21095;-86
2022/04/23 01:08:47;;;;;;;15.50;13.58;;;;;;;6.90;78.29;99671.13;2715009;86;21149;-86
2022/04/23 01:12:48;;;;;;;17.95;14.03;;;;;;;6.88;78.41;99677.48;2725604;85;21032;-85
2022/04/23 01:16:49;;;;;;;16.73;12.82;;;;;;;6.88;78.64;99680.98;2736285;85;21079;-86
2022/04/23 01:20:53;;;;;;;18.60;14.58;;;;;;;6.89;78.51;99682.67;2735307;86;21075;-85
2022/04/23 01:24:57;;;;;;;13.70;12.28;;;;;;;6.89;78.44;99681.81;2731637;85;21942;-85
2022/04/23 01:28:59;;;;;;;15.48;12.25;;;;;;;6.83;78.40;99674.72;2732831;85;21384;-86
2022/04/23 01:33:01;;;;;;;19.98;14.15;;;;;;;6.78;78.31;99667.63;2732572;85;21654;-85
2022/04/23 01:37:03;;;;;;;16.07;13.22;;;;;;;6.78;77.76;99664.98;2721035;85;21071;-85
2022/04/23 01:41:04;;;;;;;19.98;14.13;;;;;;;6.74;77.07;99664.00;2736351;85;21123;-86
2022/04/23 01:45:06;;;;;;;22.48;14.95;;;;;;;6.68;76.36;99659.55;2735064;85;21341;-84
2022/04/23 01:49:07;;;;;;;14.90;11.53;;;;;;;6.59;75.72;99666.84;2720573;86;21114;-85
2022/04/23 01:53:09;;;;;;;18.32;14.18;;;;;;;6.48;75.42;99661.50;2712795;85;21130;-85
2022/04/23 01:57:10;;;;;;;18.30;13.05;;;;;;;6.36;74.67;99657.52;2726465;86;21047;-85
2022/04/23 02:01:11;;;;;;;15.48;12.98;;;;;;;6.24;74.72;99661.91;2700566;85;21653;-85
2022/04/23 02:05:12;;;;;;;19.95;14.30;;;;;;;6.00;74.71;99641.61;2723137;86;21044;-85
2022/04/23 02:09:13;;;;;;;15.18;12.63;;;;;;;5.86;75.48;99653.15;2731173;85;21096;-85
2022/04/23 02:13:15;;;;;;;17.42;15.25;;;;;;;5.75;77.00;99648.28;2732168;85;21044;-85
2022/04/23 02:17:16;;;;;;;19.57;13.70;;;;;;;5.69;77.44;99646.92;2703356;85;21035;-85
2022/04/23 02:21:17;;;;;;;19.73;14.87;;;;;;;5.68;78.69;99654.01;2727094;85;21080;-86
2022/04/23 02:25:20;;;;;;;23.07;17.62;;;;;;;5.68;78.82;99651.83;2732873;85;21606;-85
2022/04/23 02:29:21;;;;;;;26.97;20.70;;;;;;;5.49;77.84;99658.42;2737085;85;21075;-85
2022/04/23 02:33:22;;;;;;;22.15;15.93;;;;;;;5.35;78.04;99654.12;2732401;85;21566;-86
2022/04/23 02:37:31;;;;;;;19.77;13.95;;;;;;;5.36;77.74;99666.84;2675300;86;21591;-86
2022/04/23 02:41:32;;;;;;;14.25;11.83;;;;;;;5.34;76.64;99659.52;2733546;85;21552;-86
2022/04/23 02:45:36;;;;;;;17.12;14.07;;;;;;;5.21;75.72;99661.69;2734330;85;21016;-86
2022/04/23 02:49:36;;;;;;;17.75;14.98;;;;;;;5.14;75.95;99667.03;2739879;85;21115;-85
2022/04/23 02:53:37;;;;;;;16.45;13.43;;;;;;;5.02;76.19;99669.17;2736271;85;21748;-86
2022/04/23 02:57:40;;;;;;;23.83;15.43;;;;;;;4.91;76.41;99665.47;2727531;84;21071;-85
2022/04/23 03:01:41;;;;;;;17.45;13.48;;;;;;;4.83;76.79;99673.06;2708107;85;21365;-86
2022/04/23 03:05:42;;;;;;;19.75;14.90;;;;;;;4.78;76.64;99669.91;2727889;85;21481;-85
2022/04/23 03:09:44;;;;;;;19.10;13.50;;;;;;;4.74;76.57;99669.75;2722852;85;21150;-86
2022/04/23 03:13:45;;;;;;;22.40;16.50;;;;;;;4.67;76.32;99675.41;2736513;85;21039;-86
2022/04/23 03:17:46;;;;;;;20.60;16.62;;;;;;;4.61;76.79;99682.42;2710060;85;21103;-85
2022/04/23 03:21:47;;;;;;;19.20;15.00;;;;;;;4.60;77.64;99683.37;2725956;85;21062;-86
2022/04/23 03:25:48;;;;;;;18.42;14.33;;;;;;;4.61;78.15;99692.95;2735966;86;21119;-86
2022/04/23 03:29:50;;;;;;;20.95;14.43;;;;;;;4.57;77.99;99694.11;2725114;86;21051;-86
2022/04/23 03:33:51;;;;;;;20.50;16.25;;;;;;;4.51;77.88;99689.23;2731039;85;21067;-86
2022/04/23 03:37:52;;;;;;;27.15;20.43;;;;;;;4.53;78.15;99695.27;2731202;85;21070;-85
2022/04/23 03:41:53;;;;;;;20.57;15.50;;;;;;;4.49;79.04;99695.08;2729031;85;21082;-85
2022/04/23 03:45:54;;;;;;;21.57;13.90;;;;;;;4.43;78.34;99694.55;2732847;85;21051;-86
2022/04/23 03:49:55;;;;;;;18.30;15.25;;;;;;;4.37;77.59;99693.64;2730907;85;21047;-86
2022/04/23 03:53:56;;;;;;;20.72;15.40;;;;;;;4.35;78.24;99700.80;2650541;87;21077;-85
2022/04/23 03:57:58;;;;;;;19.92;16.50;;;;;;;4.43;78.61;99702.44;2706422;86;21186;-86
2022/04/23 04:02:04;;;;;;;21.75;16.40;;;;;;;4.49;78.05;99702.98;2721775;85;21040;-86
2022/04/23 04:06:03;;;;;;;22.52;15.50;;;;;;;4.48;78.30;99705.23;2688600;86;21107;-86
2022/04/23 04:10:05;;;;;;;20.00;15.00;;;;;;;4.79;80.15;99700.58;2723275;85;21063;-85
2022/04/23 04:14:06;;;;;;;15.53;13.13;;;;;;;5.48;80.72;99708.67;2731332;85;21083;-86
2022/04/23 04:18:08;;;;;;;16.62;14.78;;;;;;;6.13;80.23;99706.73;2730142;85;21071;-86
2022/04/23 04:22:09;;;;;;;20.02;15.53;;;;;;;6.73;78.40;99700.64;2731788;85;21044;-86
2022/04/23 04:26:10;;;;;;;23.85;17.30;;;;;;;7.27;77.08;99700.50;2688604;84;21063;-86
2022/04/23 04:30:12;;;;;;;14.68;13.13;;;;;;;7.89;77.31;99706.75;2711540;85;21408;-86
2022/04/23 04:34:28;;;;;;;18.27;15.50;;;;;;;8.61;76.88;99714.62;2722316;85;21070;-86
2022/04/23 04:38:30;;;;;;;23.38;16.10;;;;;;;9.39;76.47;99717.43;2717406;85;21067;-86
2022/04/23 04:42:31;;;;;;;17.42;14.28;;;;;;;10.21;75.08;99715.61;2729122;85;21149;-86
2022/04/23 04:46:34;;;;;;;17.25;13.93;;;;;;;10.76;71.06;99705.44;2730495;85;21634;-86
2022/04/23 04:50:35;;;;;;;18.17;13.90;;;;;;;11.13;69.25;99712.19;2692936;87;21028;-85
2022/04/23 04:54:36;;;;;;;15.90;13.68;;;;;;;11.41;67.79;99720.73;2719243;86;21048;-86
2022/04/23 04:58:37;;;;;;;18.92;13.20;;;;;;;11.57;65.00;99726.27;2742245;84;21039;-85
2022/04/23 05:02:39;;;;;;;14.13;12.47;;;;;;;11.79;64.35;99724.71;2730306;85;21019;-86
2022/04/23 05:06:40;;;;;;;13.93;12.40;;;;;;;12.04;64.39;99723.22;2724413;85;21043;-86
2022/04/23 05:10:41;;;;;;;16.17;12.60;;;;;;;12.13;63.56;99718.81;2732430;85;21102;-85
2022/04/23 05:14:42;;;;;;;22.07;14.85;;;;;;;12.27;63.32;99722.79;2733036;86;21535;-86
2022/04/23 05:18:43;;;;;;;18.57;15.53;;;;;;;12.49;63.63;99728.19;2731367;85;21558;-86
2022/04/23 05:22:44;;;;;;;19.60;15.60;;;;;;;12.89;64.11;99727.86;2732463;85;21083;-86
2022/04/23 05:26:45;;;;;;;21.20;16.15;;;;;;;13.14;61.60;99720.85;2704643;83;21055;-85
2022/04/23 05:30:46;;;;;;;21.68;16.90;;;;;;;13.15;61.22;99726.53;2715104;83;21103;-85
2022/04/23 05:34:47;;;;;;;21.50;16.37;;;;;;;13.12;62.20;99732.19;2666755;85;21106;-85
2022/04/23 05:38:49;;;;;;;21.10;17.40;;;;;;;13.31;61.00;99739.66;2713628;85;21655;-85
2022/04/23 05:42:50;;;;;;;24.18;18.95;;;;;;;13.33;61.19;99734.99;2692968;86;21051;-86
2022/04/23 05:46:51;;;;;;;25.08;19.70;;;;;;;13.47;60.64;99740.31;2694447;86;21040;-86
2022/04/23 05:50:52;;;;;;;24.75;19.77;;;;;;;13.52;61.36;99750.02;2725023;86;21075;-85
2022/04/23 05:54:53;;;;;;;27.90;18.35;;;;;;;13.58;59.30;99749.89;2730774;83;22021;-86
2022/04/23 05:58:55;;;;;;;20.68;18.27;;;;;;;13.44;60.73;99748.13;2731120;85;21576;-85
2022/04/23 06:02:56;;;;;;;26.23;18.80;;;;;;;13.40;60.83;99747.56;2718402;85;21624;-86
2022/04/23 06:06:57;;;;;;;19.62;17.52;;;;;;;13.44;61.43;99748.13;2721249;85;21579;-85
2022/04/23 06:10:58;;;;;;;24.30;18.45;;;;;;;13.38;61.20;99744.73;2695167;86;21797;-86
2022/04/23 06:15:00;;;;;;;23.35;18.17;;;;;;;13.33;61.25;99741.67;2737050;85;21654;-86
2022/04/23 06:19:01;;;;;;;28.75;21.90;;;;;;;13.16;61.35;99732.21;2722405;85;21721;-85
2022/04/23 06:23:04;;;;;;;45.92;26.02;;;;;;;12.75;63.71;99734.08;2724352;85;21639;-86
2022/04/23 06:27:05;;;;;;;31.33;22.67;;;;;;;12.88;63.57;99735.53;2732071;85;21111;-85
2022/04/23 06:31:06;;;;;;;26.95;19.55;;;;;;;13.03;63.76;99735.30;2728866;85;21055;-84
2022/04/23 06:35:09;;;;;;;25.15;20.40;;;;;;;13.20;63.23;99730.93;2727906;85;21040;-86
2022/04/23 06:39:10;;;;;;;23.18;18.05;;;;;;;13.31;63.78;99740.52;2677778;85;21106;-85
2022/04/23 06:43:11;;;;;;;27.30;22.37;;;;;;;13.59;62.75;99735.53;2727788;86;21035;-85
2022/04/23 06:47:16;;;;;;;33.90;20.72;;;;;;;13.63;63.67;99739.03;2665475;86;21023;-86
2022/04/23 06:51:17;;;;;;;25.23;19.90;;;;;;;13.65;62.86;99746.39;2717054;86;21036;-85
2022/04/23 06:55:19;;;;;;;24.45;20.05;;;;;;;13.54;62.72;99742.67;2735685;84;21076;-86
2022/04/23 06:59:20;;;;;;;25.70;20.77;;;;;;;13.65;63.38;99746.91;2690366;85;21568;-85
2022/04/23 07:03:21;;;;;;;24.20;18.67;;;;;;;13.91;63.47;99747.34;2732697;85;21104;-86
2022/04/23 07:07:22;;;;;;;23.42;18.85;;;;;;;14.24;61.35;99749.63;2731665;85;21095;-85
2022/04/23 07:11:23;;;;;;;23.32;17.98;;;;;;;14.66;61.25;99737.70;2725079;85;21151;-84
2022/04/23 07:15:27;;;;;;;28.90;18.87;;;;;;;15.13;59.29;99730.34;2709669;85;21060;-85
2022/04/23 07:19:30;;;;;;;27.82;19.85;;;;;;;15.14;60.39;99738.70;2712961;86;21510;-85
2022/04/23 07:27:50;;;;;;;18.45;15.98;;;;;;;14.70;61.10;99733.16;2733362;85;21630;-85
2022/04/23 07:31:51;;;;;;;24.80;15.93;;;;;;;14.65;59.58;99735.50;2733258;86;21063;-85
2022/04/23 07:40:12;;;;;;;17.35;15.15;;;;;;;15.01;59.67;99730.34;2711597;86;21057;-86
2022/04/23 07:44:13;;;;;;;16.02;13.25;;;;;;;15.15;59.29;99726.16;2734787;85;21019;-85
2022/04/23 07:48:15;;;;;;;21.20;15.58;;;;;;;15.16;59.79;99725.16;2735051;86;21040;-86
2022/04/23 07:52:16;;;;;;;18.67;15.35;;;;;;;15.46;59.13;99733.98;2736029;85;21110;-85
2022/04/23 07:56:17;;;;;;;16.65;13.78;;;;;;;15.54;57.93;99730.77;2686819;85;21103;-85
2022/04/23 08:00:19;;;;;;;17.00;13.28;;;;;;;15.68;57.51;99733.23;2737047;85;21894;-85
2022/04/23 08:04:20;;;;;;;13.98;12.40;;;;;;;15.91;57.96;99727.63;2731840;85;21139;-85
2022/04/23 08:08:21;;;;;;;17.02;14.00;;;;;;;16.10;57.94;99724.52;2678533;87;22240;-86
2022/04/23 08:12:22;;;;;;;16.97;11.97;;;;;;;16.45;57.71;99725.52;2667364;87;21542;-85
2022/04/23 08:16:26;;;;;;;15.25;11.60;;;;;;;16.63;55.87;99719.02;2670811;87;21049;-84
2022/04/23 08:20:30;;;;;;;15.08;13.22;;;;;;;16.68;54.79;99719.30;2661631;87;21097;-85
2022/04/23 08:24:33;;;;;;;14.87;10.60;;;;;;;16.82;55.06;99710.96;2683914;87;21015;-85
2022/04/23 08:32:53;;;;;;;16.10;11.90;;;;;;;16.88;54.44;99721.50;2674730;87;21093;-85
2022/04/23 08:36:54;;;;;;;12.28;10.75;;;;;;;16.77;54.73;99722.77;2648816;87;21095;-86
2022/04/23 08:40:55;;;;;;;16.30;11.57;;;;;;;16.65;53.36;99724.52;2735403;85;21029;-85
2022/04/23 08:44:57;;;;;;;11.68;10.45;;;;;;;16.70;54.33;99718.13;2737146;85;21095;-86
2022/04/23 08:49:16;;;;;;;11.50;10.35;;;;;;;16.74;54.21;99712.38;2739545;85;21111;-87
2022/04/23 08:53:18;;;;;;;12.35;9.48;;;;;;;16.71;53.92;99712.22;2711422;86;21598;-86
2022/04/23 08:57:20;;;;;;;10.43;8.33;;;;;;;16.73;53.24;99706.69;2729037;85;21051;-86
2022/04/23 09:01:22;;;;;;;10.63;9.38;;;;;;;16.77;52.66;99702.09;2708941;86;21098;-86
2022/04/23 09:05:27;;;;;;;9.55;7.45;;;;;;;16.56;53.71;99704.94;2669986;86;21067;-86
2022/04/23 09:09:26;;;;;;;11.12;9.93;;;;;;;16.48;55.09;99702.33;2736933;85;21051;-86
2022/04/23 09:13:30;;;;;;;10.80;9.23;;;;;;;16.51;57.09;99699.28;2702016;85;21087;-85
2022/04/23 09:26:21;;;;;;;12.60;9.50;;;;;;;16.73;54.71;99692.73;2726671;83;21059;-85
2022/04/23 09:30:22;;;;;;;10.88;9.78;;;;;;;16.82;52.81;99688.13;2714839;86;21638;-88
2022/04/23 09:34:23;;;;;;;15.72;14.10;;;;;;;16.94;53.20;99688.03;2715355;86;21097;-86
2022/04/23 09:38:26;;;;;;;13.40;11.33;;;;;;;17.06;55.14;99683.57;2736962;85;21554;-87
2022/04/23 09:42:27;;;;;;;11.80;9.85;;;;;;;17.10;53.24;99679.52;2709528;85;21400;-86
2022/04/23 09:46:44;;;;;;;11.78;10.58;;;;;;;17.16;53.19;99680.13;2730411;86;21103;-86
2022/04/23 09:50:47;;;;;;;11.73;10.58;;;;;;;17.19;53.35;99677.06;2699764;86;21611;-86
2022/04/23 09:54:49;;;;;;;12.10;10.35;;;;;;;17.13;54.21;99679.16;2726091;85;21092;-85
2022/04/23 09:58:53;;;;;;;14.45;12.60;;;;;;;17.09;53.95;99669.77;2732302;86;21056;-85
2022/04/23 10:02:59;;;;;;;12.47;10.75;;;;;;;17.21;54.27;99673.67;2718570;85;21084;-85
2022/04/23 10:07:01;;;;;;;12.75;10.88;;;;;;;17.16;53.62;99672.06;2720962;85;21099;-85
2022/04/23 10:11:19;;;;;;;13.00;10.72;;;;;;;17.22;53.65;99670.50;2708125;85;21096;-85
2022/04/23 10:15:21;;;;;;;12.80;9.98;;;;;;;17.40;54.12;99664.73;2737879;85;21004;-85
2022/04/23 10:19:24;;;;;;;14.05;11.38;;;;;;;17.47;54.85;99662.14;2730318;85;21100;-86
2022/04/23 10:24:08;;;;;;;10.65;8.25;;;;;;;17.51;53.42;99662.94;2709584;86;21637;-86
2022/04/23 10:28:10;;;;;;;11.60;10.45;;;;;;;17.52;54.21;99655.19;2603235;89;21059;-84
2022/04/23 10:32:19;;;;;;;14.58;11.48;;;;;;;17.20;53.36;99651.86;2626969;89;21166;-89
2022/04/23 10:36:22;;;;;;;14.20;9.58;;;;;;;17.25;54.34;99653.47;2630296;88;21129;-84
2022/04/23 10:40:24;;;;;;;10.28;9.18;;;;;;;17.49;55.48;99644.82;2633868;89;21113;-84
2022/04/23 10:44:30;;;;;;;11.80;10.45;;;;;;;17.66;52.81;99644.09;2649357;88;21086;-87
2022/04/23 10:48:33;;;;;;;13.03;10.40;;;;;;;17.69;52.12;99643.70;2614670;88;21085;-84
2022/04/23 10:52:35;;;;;;;9.00;8.08;;;;;;;17.73;52.40;99632.07;2627594;89;21497;-85
2022/04/23 10:56:36;;;;;;;8.90;7.75;;;;;;;17.73;50.97;99626.69;2603579;89;21485;-89
2022/04/23 11:00:45;;;;;;;9.80;8.63;;;;;;;17.75;51.62;99618.42;2617643;90;21072;-87
2022/04/23 11:13:49;;;;;;;12.03;9.43;;;;;;;18.08;53.96;99604.03;2716859;85;21777;-86
2022/04/23 11:17:58;;;;;;;14.33;9.38;;;;;;;18.10;55.95;99605.16;2704400;85;21146;-92
2022/04/23 11:21:59;;;;;;;11.05;9.95;;;;;;;17.81;55.28;99602.36;2709295;84;21083;-89
2022/04/23 11:26:01;;;;;;;11.57;9.65;;;;;;;17.43;54.28;99602.53;2704233;85;21036;-88
2022/04/23 11:30:05;;;;;;;10.70;8.50;;;;;;;17.46;53.87;99595.43;2729540;86;21036;-88
2022/04/23 11:34:06;;;;;;;8.95;8.00;;;;;;;17.59;57.21;99584.03;2712052;85;21609;-84
2022/04/23 11:38:24;;;;;;;11.03;9.05;;;;;;;17.94;56.91;99584.70;2661365;85;21469;-87
2022/04/23 11:42:40;;;;;;;8.93;7.97;;;;;;;18.24;52.30;99580.05;2724574;86;21079;-87
2022/04/23 11:46:51;;;;;;;5.65;5.15;;;;;;;18.52;53.12;99578.41;2722990;85;30849;-87
2022/04/23 11:51:06;;;;;;;7.55;6.70;;;;;;;18.58;50.47;99578.16;2716850;85;21063;-86
2022/04/23 11:55:15;;;;;;;7.22;6.47;;;;;;;18.58;50.43;99574.92;2606320;87;21058;-87
2022/04/23 11:59:16;;;;;;;6.80;6.10;;;;;;;18.27;49.73;99570.73;2632430;88;21086;-87
2022/04/23 12:03:25;;;;;;;6.20;5.60;;;;;;;18.01;48.63;99565.41;2670749;86;21057;-88
2022/04/23 12:07:28;;;;;;;7.75;6.97;;;;;;;18.10;49.74;99558.92;2667625;87;21006;-85
2022/04/23 12:11:29;;;;;;;8.73;5.83;;;;;;;18.07;49.29;99566.00;2655165;88;21061;-87
2022/04/23 12:15:30;;;;;;;6.15;5.20;;;;;;;17.87;49.20;99558.22;2656839;87;21112;-87
2022/04/23 12:19:35;;;;;;;8.55;6.53;;;;;;;17.74;49.54;99547.67;2662305;86;21152;-90
2022/04/23 12:23:41;;;;;;;7.67;6.75;;;;;;;17.92;49.74;99547.74;2653579;87;21105;-88
2022/04/23 12:41:12;;;;;;;8.28;7.55;;;;;;;18.65;48.62;99517.89;2640719;88;21151;-85
2022/04/23 12:45:20;;;;;;;9.80;8.80;;;;;;;18.77;49.37;99513.30;2690766;87;21094;-84
2022/04/23 12:49:22;;;;;;;8.80;7.37;;;;;;;18.66;50.20;99515.52;2648236;89;21020;-90
2022/04/23 12:53:36;;;;;;;24.63;19.17;;;;;;;18.39;50.23;99514.00;2667926;88;21003;-84
2022/04/23 12:57:39;;;;;;;14.23;11.40;;;;;;;18.02;48.47;99515.16;2661438;88;21220;-85
2022/04/23 13:01:40;;;;;;;7.50;6.72;;;;;;;17.87;51.39;99503.08;2684495;87;21493;-86
2022/04/23 13:05:41;;;;;;;9.15;7.42;;;;;;;17.81;49.42;99493.41;2624682;88;21132;-86
2022/04/23 13:09:43;;;;;;;7.90;7.10;;;;;;;18.02;49.49;99486.38;2683228;87;21229;-84
2022/04/23 13:13:44;;;;;;;8.58;6.62;;;;;;;18.01;47.53;99483.34;2702526;85;21064;-85
2022/04/23 13:17:47;;;;;;;8.40;7.33;;;;;;;17.81;47.73;99484.53;2696961;86;21031;-82
2022/04/23 13:21:48;;;;;;;7.90;7.05;;;;;;;17.65;48.67;99482.91;2734939;85;21067;-85
2022/04/23 13:25:49;;;;;;;8.40;7.55;;;;;;;17.69;48.44;99474.80;2734129;85;21072;-84
2022/04/23 13:29:52;;;;;;;9.20;7.62;;;;;;;18.00;47.62;99464.19;2736652;85;21638;-83
2022/04/23 13:33:53;;;;;;;10.40;9.30;;;;;;;18.44;48.90;99457.38;2731223;86;21130;-86
2022/04/23 13:37:55;;;;;;;8.88;7.42;;;;;;;18.67;46.17;99453.91;2721403;85;21451;-86
2022/04/23 13:41:56;;;;;;;10.28;8.18;;;;;;;18.67;46.39;99453.91;2724147;86;21079;-87
2022/04/23 13:45:58;;;;;;;9.13;8.33;;;;;;;18.62;48.08;99455.53;2735796;85;21023;-86
2022/04/23 13:50:00;;;;;;;11.80;9.25;;;;;;;18.54;48.97;99457.86;2723428;85;21443;-89
2022/04/23 13:54:01;;;;;;;9.53;8.63;;;;;;;18.41;49.13;99445.97;2738806;85;21634;-87
2022/04/23 13:58:04;;;;;;;7.85;7.12;;;;;;;18.22;47.81;99443.48;2740224;85;21024;-86
2022/04/23 14:10:44;;;;;;;9.20;7.97;;;;;;;18.01;49.52;99434.09;2741352;85;21546;-86
2022/04/23 14:14:46;;;;;;;11.57;8.73;;;;;;;18.33;46.52;99433.19;2730322;83;21130;-85
2022/04/23 14:18:47;;;;;;;6.67;6.08;;;;;;;18.65;46.46;99423.62;2662292;85;21027;-86
2022/04/23 14:22:48;;;;;;;6.97;6.08;;;;;;;18.90;46.02;99416.89;2732694;85;21099;-89
2022/04/23 14:26:49;;;;;;;8.10;6.90;;;;;;;19.08;44.70;99413.67;2734116;85;21134;-90
2022/04/23 14:30:50;;;;;;;8.60;7.47;;;;;;;19.29;45.38;99409.16;2697075;85;21095;-86
2022/04/23 14:34:52;;;;;;;8.83;7.80;;;;;;;19.30;44.91;99411.63;2724649;84;21038;-89
2022/04/23 14:38:55;;;;;;;7.22;6.50;;;;;;;19.14;44.88;99410.16;2735879;86;21075;-83
2022/04/23 14:42:58;;;;;;;7.15;6.45;;;;;;;18.94;46.71;99408.20;2742429;85;21431;-83
2022/04/23 14:47:00;;;;;;;10.53;7.40;;;;;;;18.81;47.59;99408.15;2738202;85;21032;-83
2022/04/23 14:55:22;;;;;;;8.35;7.55;;;;;;;18.56;49.86;99396.55;2724826;85;21070;-83
2022/04/23 14:59:23;;;;;;;10.75;9.13;;;;;;;18.51;49.27;99400.38;2717338;85;21084;-83
2022/04/23 15:03:25;;;;;;;13.75;9.55;;;;;;;18.72;49.87;99399.41;2640213;86;21058;-83
2022/04/23 15:07:26;;;;;;;9.95;9.08;;;;;;;19.00;47.44;99394.48;2690263;86;21035;-87
2022/04/23 15:11:27;;;;;;;9.65;8.05;;;;;;;19.01;47.20;99399.33;2733371;85;21079;-82
2022/04/23 15:15:30;;;;;;;8.38;7.45;;;;;;;18.79;47.32;99394.90;2718943;86;21047;-82
2022/04/23 15:19:32;;;;;;;9.58;8.70;;;;;;;18.61;49.47;99395.96;2710490;85;21549;-81
2022/04/23 15:23:35;;;;;;;17.15;11.68;;;;;;;18.40;48.94;99396.38;2725669;86;21004;-82
2022/04/23 15:27:37;;;;;;;10.08;9.08;;;;;;;18.18;50.31;99394.28;2642864;86;20980;-79
2022/04/23 15:31:41;;;;;;;10.38;9.28;;;;;;;17.86;51.46;99396.00;2610354;85;21001;-85
2022/04/23 15:35:43;;;;;;;9.38;8.30;;;;;;;17.70;52.61;99389.06;2698495;86;21080;-86
2022/04/23 15:39:44;;;;;;;10.63;8.88;;;;;;;17.66;52.51;99387.77;2722559;85;21111;-84
2022/04/23 15:43:45;;;;;;;9.20;8.25;;;;;;;17.82;51.71;99385.33;2733470;85;21063;-86
2022/04/23 15:47:46;;;;;;;9.25;8.35;;;;;;;18.08;49.12;99382.02;2737338;84;21102;-85
2022/04/23 15:51:47;;;;;;;7.58;6.60;;;;;;;18.30;47.65;99381.09;2715406;86;21083;-86
2022/04/23 15:55:48;;;;;;;8.48;7.75;;;;;;;18.49;47.04;99376.86;2738872;85;21099;-86
2022/04/23 15:59:49;;;;;;;8.20;7.37;;;;;;;18.67;47.53;99369.56;2658254;85;21081;-86
2022/04/23 16:03:51;;;;;;;10.68;8.60;;;;;;;18.74;46.94;99371.75;2716795;86;21068;-85
2022/04/23 16:07:52;;;;;;;12.98;10.23;;;;;;;18.72;47.68;99370.31;2729205;85;21040;-85
2022/04/23 16:11:53;;;;;;;12.98;10.85;;;;;;;18.62;49.32;99374.20;2726514;85;21070;-83
2022/04/23 16:15:55;;;;;;;15.30;12.45;;;;;;;18.45;50.73;99377.76;2739734;85;21023;-85
2022/04/23 16:19:57;;;;;;;18.23;16.27;;;;;;;18.40;50.81;99374.84;2711981;86;21059;-83
2022/04/23 16:23:58;;;;;;;11.73;9.85;;;;;;;18.29;49.82;99376.73;2691513;85;21067;-85
2022/04/23 16:27:59;;;;;;;10.58;8.48;;;;;;;18.07;49.63;99372.26;2607618;88;21113;-86
2022/04/23 16:32:00;;;;;;;10.90;8.33;;;;;;;17.90;50.56;99387.04;2660768;87;21089;-83
2022/04/23 16:49:01;;;;;;;10.18;9.18;;;;;;;17.27;53.25;99376.48;2611357;88;21108;-85
2022/04/23 16:53:03;;;;;;;13.28;11.97;;;;;;;17.12;52.95;99373.86;2628306;88;21125;-86
2022/04/23 16:57:05;;;;;;;11.30;9.93;;;;;;;16.93;52.59;99381.48;2636866;88;21062;-85
2022/04/23 17:01:06;;;;;;;12.68;10.08;;;;;;;16.76;53.11;99385.41;2626802;88;21043;-83
2022/04/23 17:05:08;;;;;;;17.35;11.60;;;;;;;16.63;53.10;99382.88;2628007;89;21036;-86
2022/04/23 17:09:09;;;;;;;14.28;11.55;;;;;;;16.54;53.16;99386.70;2625885;89;21788;-85
2022/04/23 17:13:10;;;;;;;14.55;12.93;;;;;;;16.46;53.35;99387.62;2624395;87;21161;-85
2022/04/23 17:17:11;;;;;;;21.80;15.23;;;;;;;16.40;53.02;99385.67;2729465;85;21473;-85
2022/04/23 17:21:13;;;;;;;25.00;15.55;;;;;;;16.33;53.09;99386.09;2683389;85;21679;-92
2022/04/23 17:25:14;;;;;;;30.25;18.87;;;;;;;16.24;54.25;99382.67;2731636;86;21063;-87
2022/04/23 17:29:15;;;;;;;35.95;21.15;;;;;;;16.13;55.36;99380.80;2706500;85;21075;-86
2022/04/23 17:33:16;;;;;;;44.18;29.80;;;;;;;16.09;55.11;99392.06;2709494;85;21095;-91
2022/04/23 17:37:17;;;;;;;45.03;28.92;;;;;;;15.95;57.88;99395.06;2737499;86;21040;-87
2022/04/23 17:41:18;;;;;;;32.53;20.05;;;;;;;15.75;57.08;99384.83;2735403;85;21048;-87
2022/04/23 17:45:20;;;;;;;27.10;20.50;;;;;;;15.65;57.50;99388.26;2736880;85;21099;-86
2022/04/23 17:49:21;;;;;;;34.65;19.23;;;;;;;15.63;57.27;99391.63;2731111;86;21036;-86
2022/04/23 17:53:22;;;;;;;36.38;22.95;;;;;;;15.61;58.42;99390.45;2699376;86;21378;-88
2022/04/23 17:57:24;;;;;;;31.30;21.52;;;;;;;15.44;60.25;99388.43;2726869;86;21147;-89
2022/04/23 18:10:06;;;;;;;37.83;22.17;;;;;;;15.27;60.99;99387.21;2738226;85;21019;-85
2022/04/23 18:14:09;;;;;;;83.10;52.03;;;;;;;15.19;61.51;99394.47;2740772;85;21064;-85
2022/04/23 18:18:11;;;;;;;69.25;43.13;;;;;;;15.05;60.78;99395.58;2739403;85;21525;-86
2022/04/23 18:22:14;;;;;;;26.30;16.02;;;;;;;14.91;60.72;99398.48;2742381;85;21036;-86
2022/04/23 18:26:15;;;;;;;17.80;13.45;;;;;;;14.85;58.41;99395.18;2735263;85;21123;-86
2022/04/23 18:30:16;;;;;;;17.75;13.28;;;;;;;14.78;57.70;99397.72;2734598;86;21100;-88
2022/04/23 18:34:16;;;;;;;16.10;12.30;;;;;;;14.73;57.51;99396.08;2732499;85;21075;-83
2022/04/23 18:38:18;;;;;;;17.92;13.68;;;;;;;14.65;57.04;99395.58;2739270;85;21083;-88
2022/04/23 18:42:19;;;;;;;16.45;14.20;;;;;;;14.59;56.80;99400.30;2707375;86;21590;-84
2022/04/23 18:46:20;;;;;;;14.60;13.03;;;;;;;14.53;56.72;99402.31;2682198;86;21067;-89
2022/04/23 18:50:21;;;;;;;14.75;13.22;;;;;;;14.47;56.28;99397.66;2735292;86;21107;-87
2022/04/23 18:54:22;;;;;;;17.15;12.33;;;;;;;14.43;55.86;99396.67;2709830;86;21067;-88
2022/04/23 18:58:23;;;;;;;14.53;12.10;;;;;;;14.41;55.35;99395.16;2731768;86;21154;-86
2022/04/23 19:02:25;;;;;;;19.82;13.40;;;;;;;14.39;55.45;99387.33;2725189;86;21087;-87
2022/04/23 19:06:26;;;;;;;18.45;12.43;;;;;;;14.37;55.58;99388.01;2702732;86;21036;-87
2022/04/23 19:10:27;;;;;;;15.95;12.40;;;;;;;14.35;55.90;99390.03;2729448;83;21042;-87
2022/04/23 19:14:28;;;;;;;19.67;12.90;;;;;;;14.35;56.08;99393.19;2720828;84;21083;-85
2022/04/23 19:18:29;;;;;;;24.43;19.50;;;;;;;14.31;55.90;99387.34;2734021;85;21091;-87
2022/04/23 19:31:10;;;;;;;32.53;23.62;;;;;;;14.25;56.56;99378.67;2728987;85;21167;-93
2022/04/23 19:35:11;;;;;;;35.35;26.80;;;;;;;14.23;56.66;99374.83;2737314;85;21127;-92
2022/04/23 19:39:13;;;;;;;42.27;32.17;;;;;;;14.28;56.85;99371.64;2730763;85;21059;-92
2022/04/23 19:43:15;;;;;;;38.80;28.52;;;;;;;14.31;56.97;99363.27;2732401;85;21104;-92
2022/04/23 19:47:16;;;;;;;30.30;21.70;;;;;;;14.34;57.04;99364.77;2736446;85;21028;-88
2022/04/23 19:51:22;;;;;;;25.60;18.00;;;;;;;14.36;57.02;99364.94;2728039;86;21051;-86
2022/04/23 19:55:24;;;;;;;30.10;20.12;;;;;;;14.37;57.35;99364.42;2720460;86;21059;-89
2022/04/23 19:59:23;;;;;;;39.25;28.47;;;;;;;14.35;58.29;99361.94;2723054;85;21040;-87
2022/04/23 20:03:24;;;;;;;50.40;36.23;;;;;;;14.22;59.68;99358.97;2706165;86;21063;-88
2022/04/23 20:07:25;;;;;;;39.05;27.80;;;;;;;14.09;60.20;99360.84;2707779;86;21162;-86
2022/04/23 20:11:27;;;;;;;35.28;25.25;;;;;;;13.94;60.57;99355.34;2733030;85;21657;-86